sensor_id;sensor_type;location;lat;lon;timestamp;temperature;humidity
72646;DHT22;60687;53.876;10.674;2023-09-18T00:06:14;20.00;92.30
72646;DHT22;60687;53.876;10.674;2023-09-18T00:16:18;19.90;91.90
72646;DHT22;60687;53.876;10.674;2023-09-18T00:26:21;19.90;91.70
72646;DHT22;60687;53.876;10.674;2023-09-18T00:36:31;19.80;92.20
72646;DHT22;60687;53.876;10.674;2023-09-18T00:46:33;19.80;91.70
72646;DHT22;60687;53.876;10.674;2023-09-18T00:56:38;19.70;92.00
72646;DHT22;60687;53.876;10.674;2023-09-18T01:06:41;19.60;91.60
72646;DHT22;60687;53.876;10.674;2023-09-18T01:16:49;19.60;91.50
72646;DHT22;60687;53.876;10.674;2023-09-18T01:26:56;19.50;91.70
72646;DHT22;60687;53.876;10.674;2023-09-18T01:37:00;19.40;91.70
72646;DHT22;60687;53.876;10.674;2023-09-18T01:47:07;19.30;91.60
72646;DHT22;60687;53.876;10.674;2023-09-18T01:57:11;19.30;91.80
72646;DHT22;60687;53.876;10.674;2023-09-18T02:07:15;19.20;91.60
72646;DHT22;60687;53.876;10.674;2023-09-18T02:17:18;19.10;92.30
72646;DHT22;60687;53.876;10.674;2023-09-18T02:27:23;19.10;91.80
72646;DHT22;60687;53.876;10.674;2023-09-18T02:37:25;19.00;92.00
72646;DHT22;60687;53.876;10.674;2023-09-18T02:47:31;18.90;92.20
72646;DHT22;60687;53.876;10.674;2023-09-18T02:57:35;18.80;92.30
72646;DHT22;60687;53.876;10.674;2023-09-18T03:07:39;18.70;92.40
72646;DHT22;60687;53.876;10.674;2023-09-18T03:17:42;18.70;92.50
72646;DHT22;60687;53.876;10.674;2023-09-18T03:27:46;18.70;92.70
72646;DHT22;60687;53.876;10.674;2023-09-18T03:37:50;18.60;92.90
72646;DHT22;60687;53.876;10.674;2023-09-18T03:47:54;18.50;93.00
72646;DHT22;60687;53.876;10.674;2023-09-18T03:57:57;18.50;93.00
72646;DHT22;60687;53.876;10.674;2023-09-18T04:08:01;18.40;92.90
72646;DHT22;60687;53.876;10.674;2023-09-18T04:18:04;18.40;92.70
72646;DHT22;60687;53.876;10.674;2023-09-18T04:28:08;18.40;92.80
72646;DHT22;60687;53.876;10.674;2023-09-18T04:38:11;18.30;92.70
72646;DHT22;60687;53.876;10.674;2023-09-18T04:48:17;18.30;92.70
72646;DHT22;60687;53.876;10.674;2023-09-18T04:58:19;18.30;92.90
72646;DHT22;60687;53.876;10.674;2023-09-18T05:08:24;18.20;92.70
72646;DHT22;60687;53.876;10.674;2023-09-18T05:18:26;18.20;92.90
72646;DHT22;60687;53.876;10.674;2023-09-18T05:28:31;18.20;93.00
72646;DHT22;60687;53.876;10.674;2023-09-18T05:38:33;18.20;93.00
72646;DHT22;60687;53.876;10.674;2023-09-18T05:48:37;18.20;93.10
72646;DHT22;60687;53.876;10.674;2023-09-18T05:58:39;18.20;92.90
72646;DHT22;60687;53.876;10.674;2023-09-18T06:08:43;18.20;93.10
72646;DHT22;60687;53.876;10.674;2023-09-18T06:18:46;18.30;93.30
72646;DHT22;60687;53.876;10.674;2023-09-18T06:28:50;18.40;92.90
72646;DHT22;60687;53.876;10.674;2023-09-18T06:38:53;18.40;92.90
72646;DHT22;60687;53.876;10.674;2023-09-18T06:48:57;18.50;93.20
72646;DHT22;60687;53.876;10.674;2023-09-18T06:59:01;18.70;92.90
72646;DHT22;60687;53.876;10.674;2023-09-18T07:09:04;18.90;92.50
72646;DHT22;60687;53.876;10.674;2023-09-18T07:19:08;19.20;92.00
72646;DHT22;60687;53.876;10.674;2023-09-18T07:29:14;19.50;91.40
72646;DHT22;60687;53.876;10.674;2023-09-18T07:39:17;19.80;90.90
72646;DHT22;60687;53.876;10.674;2023-09-18T07:49:20;20.00;90.80
72646;DHT22;60687;53.876;10.674;2023-09-18T07:59:23;20.30;89.80
72646;DHT22;60687;53.876;10.674;2023-09-18T08:09:27;20.90;87.20
72646;DHT22;60687;53.876;10.674;2023-09-18T08:19:31;21.30;83.50
72646;DHT22;60687;53.876;10.674;2023-09-18T08:29:35;21.70;85.10
72646;DHT22;60687;53.876;10.674;2023-09-18T08:39:39;22.10;81.40
72646;DHT22;60687;53.876;10.674;2023-09-18T08:49:43;22.30;80.90
72646;DHT22;60687;53.876;10.674;2023-09-18T08:59:46;22.40;76.80
72646;DHT22;60687;53.876;10.674;2023-09-18T09:09:51;22.40;77.30
72646;DHT22;60687;53.876;10.674;2023-09-18T09:20:08;22.40;76.60
72646;DHT22;60687;53.876;10.674;2023-09-18T09:30:19;22.40;76.90
72646;DHT22;60687;53.876;10.674;2023-09-18T09:40:22;22.30;76.60
72646;DHT22;60687;53.876;10.674;2023-09-18T09:50:28;22.50;77.10
72646;DHT22;60687;53.876;10.674;2023-09-18T10:00:32;22.50;76.10
72646;DHT22;60687;53.876;10.674;2023-09-18T10:10:44;22.50;76.80
72646;DHT22;60687;53.876;10.674;2023-09-18T10:20:50;22.60;76.50
72646;DHT22;60687;53.876;10.674;2023-09-18T10:30:56;22.70;75.80
72646;DHT22;60687;53.876;10.674;2023-09-18T10:40:59;22.90;75.80
72646;DHT22;60687;53.876;10.674;2023-09-18T10:51:04;23.00;75.30
72646;DHT22;60687;53.876;10.674;2023-09-18T11:01:06;22.90;75.40
72646;DHT22;60687;53.876;10.674;2023-09-18T11:11:12;23.00;75.00
72646;DHT22;60687;53.876;10.674;2023-09-18T11:21:18;23.00;75.00
72646;DHT22;60687;53.876;10.674;2023-09-18T11:31:42;23.00;75.00
72646;DHT22;60687;53.876;10.674;2023-09-18T11:41:46;23.10;75.20
72646;DHT22;60687;53.876;10.674;2023-09-18T11:51:50;23.30;75.10
72646;DHT22;60687;53.876;10.674;2023-09-18T12:01:53;23.30;75.60
72646;DHT22;60687;53.876;10.674;2023-09-18T12:12:05;23.30;75.90
72646;DHT22;60687;53.876;10.674;2023-09-18T12:22:09;23.30;75.10
72646;DHT22;60687;53.876;10.674;2023-09-18T12:32:13;23.40;75.10
72646;DHT22;60687;53.876;10.674;2023-09-18T12:42:16;23.60;74.20
72646;DHT22;60687;53.876;10.674;2023-09-18T12:52:23;23.60;74.90
72646;DHT22;60687;53.876;10.674;2023-09-18T13:02:25;23.70;74.80
72646;DHT22;60687;53.876;10.674;2023-09-18T13:12:41;23.80;74.70
72646;DHT22;60687;53.876;10.674;2023-09-18T13:22:48;23.80;74.40
72646;DHT22;60687;53.876;10.674;2023-09-18T13:33:01;23.90;74.70
72646;DHT22;60687;53.876;10.674;2023-09-18T13:43:05;23.80;73.50
72646;DHT22;60687;53.876;10.674;2023-09-18T13:53:10;23.90;74.00
72646;DHT22;60687;53.876;10.674;2023-09-18T14:03:12;23.90;74.60
72646;DHT22;60687;53.876;10.674;2023-09-18T14:13:19;23.80;74.10
72646;DHT22;60687;53.876;10.674;2023-09-18T14:23:22;23.80;73.60
72646;DHT22;60687;53.876;10.674;2023-09-18T14:33:25;23.70;73.00
72646;DHT22;60687;53.876;10.674;2023-09-18T14:43:28;23.70;73.10
72646;DHT22;60687;53.876;10.674;2023-09-18T14:53:32;23.70;73.50
72646;DHT22;60687;53.876;10.674;2023-09-18T15:03:34;23.60;73.60
72646;DHT22;60687;53.876;10.674;2023-09-18T15:13:38;23.50;74.50
72646;DHT22;60687;53.876;10.674;2023-09-18T15:23:41;23.50;75.00
72646;DHT22;60687;53.876;10.674;2023-09-18T15:33:45;23.50;75.30
72646;DHT22;60687;53.876;10.674;2023-09-18T15:43:48;23.40;75.10
72646;DHT22;60687;53.876;10.674;2023-09-18T15:53:52;23.30;74.50
72646;DHT22;60687;53.876;10.674;2023-09-18T16:03:55;23.20;74.50
72646;DHT22;60687;53.876;10.674;2023-09-18T16:14:00;23.10;75.90
72646;DHT22;60687;53.876;10.674;2023-09-18T16:24:03;23.00;75.30
72646;DHT22;60687;53.876;10.674;2023-09-18T16:34:11;22.90;75.60
72646;DHT22;60687;53.876;10.674;2023-09-18T16:44:14;22.80;75.70
72646;DHT22;60687;53.876;10.674;2023-09-18T16:54:20;22.70;76.60
72646;DHT22;60687;53.876;10.674;2023-09-18T17:04:34;22.70;77.80
72646;DHT22;60687;53.876;10.674;2023-09-18T17:14:42;22.50;78.20
72646;DHT22;60687;53.876;10.674;2023-09-18T17:24:44;22.40;78.50
72646;DHT22;60687;53.876;10.674;2023-09-18T17:34:48;22.30;78.70
72646;DHT22;60687;53.876;10.674;2023-09-18T17:44:51;22.20;79.00
72646;DHT22;60687;53.876;10.674;2023-09-18T17:54:55;22.10;79.30
72646;DHT22;60687;53.876;10.674;2023-09-18T18:04:58;21.90;79.30
72646;DHT22;60687;53.876;10.674;2023-09-18T18:15:03;21.70;80.10
72646;DHT22;60687;53.876;10.674;2023-09-18T18:25:07;21.60;80.60
72646;DHT22;60687;53.876;10.674;2023-09-18T18:35:11;21.50;81.20
72646;DHT22;60687;53.876;10.674;2023-09-18T18:45:18;21.40;81.70
72646;DHT22;60687;53.876;10.674;2023-09-18T18:55:22;21.30;82.30
72646;DHT22;60687;53.876;10.674;2023-09-18T19:05:24;21.20;83.20
72646;DHT22;60687;53.876;10.674;2023-09-18T19:15:32;21.10;83.40
72646;DHT22;60687;53.876;10.674;2023-09-18T19:25:46;21.00;83.70
72646;DHT22;60687;53.876;10.674;2023-09-18T19:35:50;20.90;84.90
72646;DHT22;60687;53.876;10.674;2023-09-18T19:45:53;20.90;85.30
72646;DHT22;60687;53.876;10.674;2023-09-18T19:55:57;20.80;86.10
72646;DHT22;60687;53.876;10.674;2023-09-18T20:05:59;20.70;86.20
72646;DHT22;60687;53.876;10.674;2023-09-18T20:16:04;20.60;87.00
72646;DHT22;60687;53.876;10.674;2023-09-18T20:26:07;20.50;87.00
72646;DHT22;60687;53.876;10.674;2023-09-18T20:36:11;20.50;87.00
72646;DHT22;60687;53.876;10.674;2023-09-18T20:46:15;20.40;87.50
72646;DHT22;60687;53.876;10.674;2023-09-18T20:56:20;20.40;87.80
72646;DHT22;60687;53.876;10.674;2023-09-18T21:06:23;20.30;87.90
72646;DHT22;60687;53.876;10.674;2023-09-18T21:16:27;20.20;88.00
72646;DHT22;60687;53.876;10.674;2023-09-18T21:26:30;20.20;88.30
72646;DHT22;60687;53.876;10.674;2023-09-18T21:36:34;20.20;90.10
72646;DHT22;60687;53.876;10.674;2023-09-18T21:46:36;20.00;88.70
72646;DHT22;60687;53.876;10.674;2023-09-18T21:56:41;19.70;86.10
72646;DHT22;60687;53.876;10.674;2023-09-18T22:06:43;19.40;87.30
72646;DHT22;60687;53.876;10.674;2023-09-18T22:16:48;19.20;88.30
72646;DHT22;60687;53.876;10.674;2023-09-18T22:26:51;19.10;89.90
72646;DHT22;60687;53.876;10.674;2023-09-18T22:36:55;19.00;89.90
72646;DHT22;60687;53.876;10.674;2023-09-18T22:57:42;18.60;90.60
72646;DHT22;60687;53.876;10.674;2023-09-18T23:07:49;18.50;90.30
72646;DHT22;60687;53.876;10.674;2023-09-18T23:17:55;18.40;90.60
72646;DHT22;60687;53.876;10.674;2023-09-18T23:27:57;18.30;90.50
72646;DHT22;60687;53.876;10.674;2023-09-18T23:38:02;18.20;90.40
72646;DHT22;60687;53.876;10.674;2023-09-18T23:48:06;18.10;91.00
72646;DHT22;60687;53.876;10.674;2023-09-18T23:58:15;18.00;91.40
